createdAt,value
2018-06-23T00:01:13.047Z,13.71
2018-06-23T00:03:41.096Z,13.69
2018-06-23T00:06:09.141Z,13.66
2018-06-23T00:08:37.297Z,13.67
2018-06-23T00:11:05.352Z,13.71
2018-06-23T00:13:33.412Z,13.67
2018-06-23T00:16:01.464Z,13.68
2018-06-23T00:18:29.516Z,13.72
2018-06-23T00:20:57.553Z,13.70
2018-06-23T00:23:25.604Z,13.65
2018-06-23T00:25:59.200Z,13.65
2018-06-23T00:28:27.278Z,13.62
2018-06-23T00:30:55.320Z,13.63
2018-06-23T00:33:23.372Z,13.68
2018-06-23T00:35:51.420Z,13.68
2018-06-23T00:38:19.447Z,13.66
2018-06-23T00:40:47.499Z,13.68
2018-06-23T00:43:15.543Z,13.70
2018-06-23T00:45:43.593Z,13.74
2018-06-23T00:48:11.640Z,13.74
2018-06-23T00:50:39.698Z,13.77
2018-06-23T00:53:07.740Z,13.73
2018-06-23T00:55:35.789Z,13.71
2018-06-23T00:58:03.816Z,13.75
2018-06-23T01:00:31.859Z,13.77
2018-06-23T01:02:59.916Z,13.77
2018-06-23T01:05:27.972Z,13.76
2018-06-23T01:07:56.018Z,13.73
2018-06-23T01:10:24.061Z,13.72
2018-06-23T01:12:52.124Z,13.76
2018-06-23T01:15:20.220Z,13.79
2018-06-23T01:17:48.259Z,13.82
2018-06-23T01:20:16.302Z,13.85
2018-06-23T01:22:44.341Z,13.77
2018-06-23T01:25:12.413Z,13.70
2018-06-23T01:27:40.439Z,13.63
2018-06-23T01:30:08.845Z,13.57
2018-06-23T01:32:36.904Z,13.55
2018-06-23T01:35:04.959Z,13.53
2018-06-23T01:37:33.036Z,13.51
2018-06-23T01:40:01.084Z,13.52
2018-06-23T01:42:29.128Z,13.48
2018-06-23T01:44:57.187Z,13.43
2018-06-23T01:47:25.223Z,13.44
2018-06-23T01:49:53.296Z,13.45
2018-06-23T01:52:21.339Z,13.51
2018-06-23T01:54:49.385Z,13.56
2018-06-23T01:57:17.443Z,13.60
2018-06-23T01:59:45.505Z,13.59
2018-06-23T02:02:13.551Z,13.56
2018-06-23T02:04:41.579Z,13.57
2018-06-23T02:07:09.628Z,13.55
2018-06-23T02:09:37.679Z,13.52
2018-06-23T02:12:05.732Z,13.54
2018-06-23T02:14:39.207Z,13.55
2018-06-23T02:17:12.751Z,13.57
2018-06-23T02:19:46.265Z,13.55
2018-06-23T02:22:19.765Z,13.57
2018-06-23T02:24:53.220Z,13.62
2018-06-23T02:27:26.772Z,13.66
2018-06-23T02:30:00.255Z,13.68
2018-06-23T02:32:33.753Z,13.71
2018-06-23T02:35:05.433Z,13.73
2018-06-23T02:37:35.352Z,13.75
2018-06-23T02:40:03.514Z,13.75
2018-06-23T02:42:31.591Z,13.77
2018-06-23T02:44:59.668Z,13.80
2018-06-23T02:47:27.726Z,13.83
2018-06-23T02:49:57.329Z,13.86
2018-06-23T02:52:25.364Z,13.89
2018-06-23T02:54:53.404Z,13.94
2018-06-23T02:57:21.519Z,13.97
2018-06-23T02:59:49.562Z,13.98
2018-06-23T03:02:17.616Z,14.00
2018-06-23T03:04:45.704Z,14.03
2018-06-23T03:07:13.767Z,14.04
2018-06-23T03:09:41.805Z,14.08
2018-06-23T03:12:09.844Z,14.11
2018-06-23T03:14:37.893Z,14.12
2018-06-23T03:17:10.439Z,14.15
2018-06-23T03:19:38.484Z,14.17
2018-06-23T03:22:06.527Z,14.17
2018-06-23T03:24:34.576Z,14.16
2018-06-23T03:27:02.626Z,14.19
2018-06-23T03:29:30.709Z,14.22
2018-06-23T03:31:58.743Z,14.21
2018-06-23T03:34:26.803Z,14.22
2018-06-23T03:36:54.844Z,14.25
2018-06-23T03:39:22.895Z,14.23
2018-06-23T03:41:50.952Z,14.26
2018-06-23T03:44:18.997Z,14.33
2018-06-23T03:46:47.048Z,14.34
2018-06-23T03:49:15.080Z,14.35
2018-06-23T03:51:43.156Z,14.35
2018-06-23T03:54:11.200Z,14.35
2018-06-23T03:56:39.276Z,14.37
2018-06-23T03:59:07.321Z,14.35
2018-06-23T04:01:35.364Z,14.33
2018-06-23T04:04:03.400Z,14.32
2018-06-23T04:06:31.435Z,14.35
2018-06-23T04:08:59.471Z,14.33
2018-06-23T04:11:27.533Z,14.28
2018-06-23T04:13:55.564Z,14.24
2018-06-23T04:16:23.595Z,14.24
2018-06-23T04:18:56.535Z,14.24
2018-06-23T04:21:24.833Z,14.24
2018-06-23T04:23:52.876Z,14.22
2018-06-23T04:26:20.960Z,14.20
2018-06-23T04:28:49.028Z,14.19
2018-06-23T04:31:17.071Z,14.19
2018-06-23T04:33:45.279Z,14.21
2018-06-23T04:36:13.648Z,14.24
2018-06-23T04:38:41.700Z,14.25
2018-06-23T04:41:09.743Z,14.24
2018-06-23T04:43:37.847Z,14.27
2018-06-23T04:46:05.949Z,14.27
2018-06-23T04:48:33.999Z,14.31
2018-06-23T04:51:02.108Z,14.35
2018-06-23T04:53:30.281Z,14.38
2018-06-23T04:55:58.381Z,14.44
2018-06-23T04:58:26.415Z,14.44
2018-06-23T05:00:54.463Z,14.44
2018-06-23T05:03:22.506Z,14.45
2018-06-23T05:05:50.548Z,14.43
2018-06-23T05:08:18.593Z,14.42
2018-06-23T05:10:46.628Z,14.40
2018-06-23T05:13:14.667Z,14.45
2018-06-23T05:15:42.691Z,14.55
2018-06-23T05:18:10.733Z,14.65
2018-06-23T05:20:38.783Z,14.66
2018-06-23T05:23:06.884Z,14.74
2018-06-23T05:25:34.919Z,14.72
2018-06-23T05:28:02.951Z,14.69
2018-06-23T05:30:31.183Z,14.71
2018-06-23T05:32:59.236Z,14.74
2018-06-23T05:35:27.281Z,14.74
2018-06-23T05:37:55.326Z,14.76
2018-06-23T05:40:23.347Z,14.80
2018-06-23T05:42:51.396Z,14.85
2018-06-23T05:45:19.460Z,14.90
2018-06-23T05:47:47.540Z,14.92
2018-06-23T05:50:15.587Z,14.98
2018-06-23T05:52:43.641Z,15.10
2018-06-23T05:55:11.669Z,15.17
2018-06-23T05:57:39.704Z,15.21
2018-06-23T06:00:07.744Z,15.22
2018-06-23T06:02:35.784Z,15.27
2018-06-23T06:05:03.891Z,15.32
2018-06-23T06:07:31.967Z,15.36
2018-06-23T06:10:00.011Z,15.43
2018-06-23T06:12:28.052Z,15.50
2018-06-23T06:14:56.120Z,15.52
2018-06-23T06:17:27.741Z,15.50
2018-06-23T06:19:58.093Z,15.49
2018-06-23T06:22:27.345Z,15.48
2018-06-23T06:24:55.691Z,15.45
2018-06-23T06:27:23.760Z,15.49
2018-06-23T06:29:52.451Z,15.54
2018-06-23T06:32:20.523Z,15.60
2018-06-23T06:34:48.579Z,15.76
2018-06-23T06:37:16.638Z,15.86
2018-06-23T06:39:45.208Z,15.93
2018-06-23T06:42:13.336Z,16.00
2018-06-23T06:44:41.451Z,16.00
2018-06-23T06:47:09.796Z,16.04
2018-06-23T06:49:37.867Z,16.11
2018-06-23T06:52:06.039Z,16.16
2018-06-23T06:54:34.253Z,16.16
2018-06-23T06:57:02.298Z,16.11
2018-06-23T06:59:30.334Z,16.12
2018-06-23T07:01:58.386Z,16.17
2018-06-23T07:04:26.428Z,16.16
2018-06-23T07:06:54.499Z,16.24
2018-06-23T07:09:22.544Z,16.37
2018-06-23T07:11:50.584Z,16.45
2018-06-23T07:14:18.634Z,16.54
2018-06-23T07:16:46.668Z,16.62
2018-06-23T07:19:14.708Z,16.60
2018-06-23T07:21:42.741Z,16.50
2018-06-23T07:24:10.840Z,16.46
2018-06-23T07:26:38.829Z,16.44
2018-06-23T07:29:07.456Z,16.50
2018-06-23T07:31:35.572Z,16.55
2018-06-23T07:34:03.647Z,16.54
2018-06-23T07:36:31.677Z,16.57
2018-06-23T07:39:00.152Z,16.56
2018-06-23T07:41:28.176Z,16.56
2018-06-23T07:43:56.220Z,16.58
2018-06-23T07:46:24.248Z,16.52
2018-06-23T07:48:52.332Z,16.46
2018-06-23T07:51:20.385Z,16.39
2018-06-23T07:53:48.436Z,16.25
2018-06-23T07:56:16.526Z,16.11
2018-06-23T07:58:44.528Z,16.03
2018-06-23T08:01:12.578Z,16.04
2018-06-23T08:03:40.624Z,16.09
2018-06-23T08:06:08.681Z,16.09
2018-06-23T08:08:36.732Z,16.04
2018-06-23T08:11:04.792Z,16.11
2018-06-23T08:13:32.843Z,16.26
2018-06-23T08:16:00.922Z,16.47
2018-06-23T08:18:29.076Z,16.52
2018-06-23T08:20:57.100Z,16.49
2018-06-23T08:23:25.180Z,16.55
2018-06-23T08:25:53.239Z,16.69
2018-06-23T08:28:21.288Z,16.79
2018-06-23T08:30:49.410Z,16.87
2018-06-23T08:33:17.416Z,16.87
2018-06-23T08:35:45.475Z,16.86
2018-06-23T08:38:13.562Z,16.82
2018-06-23T08:40:41.968Z,16.86
2018-06-23T08:43:10.004Z,17.19
2018-06-23T08:45:38.084Z,17.77
2018-06-23T08:48:06.284Z,18.28
2018-06-23T08:50:34.444Z,18.91
2018-06-23T08:53:02.529Z,19.01
2018-06-23T08:55:30.679Z,18.96
2018-06-23T08:57:58.732Z,18.81
2018-06-23T09:00:26.791Z,18.61
2018-06-23T09:02:54.831Z,18.38
2018-06-23T09:05:22.966Z,18.06
2018-06-23T09:07:51.016Z,17.76
2018-06-23T09:10:19.097Z,17.59
2018-06-23T09:12:47.244Z,17.54
2018-06-23T09:15:15.712Z,17.47
2018-06-23T09:17:43.979Z,17.39
2018-06-23T09:20:12.050Z,17.34
2018-06-23T09:22:40.080Z,17.47
2018-06-23T09:25:08.167Z,17.50
2018-06-23T09:27:36.219Z,17.54
2018-06-23T09:30:04.634Z,17.60
2018-06-23T09:32:32.751Z,17.74
2018-06-23T09:35:00.752Z,18.03
2018-06-23T09:37:28.816Z,18.27
2018-06-23T09:39:56.860Z,18.19
2018-06-23T09:42:25.026Z,18.04
2018-06-23T09:44:53.068Z,17.94
2018-06-23T09:47:21.196Z,17.91
2018-06-23T09:49:49.248Z,17.83
2018-06-23T09:52:17.292Z,17.81
2018-06-23T09:54:45.331Z,17.83
2018-06-23T09:57:13.800Z,17.90
2018-06-23T09:59:42.949Z,17.96
2018-06-23T10:02:17.215Z,18.04
2018-06-23T10:04:46.767Z,18.15
2018-06-23T10:07:15.007Z,18.02
2018-06-23T10:09:43.456Z,17.83
2018-06-23T10:12:11.509Z,17.53
2018-06-23T10:14:39.575Z,17.77
2018-06-23T10:17:07.645Z,18.30
2018-06-23T10:19:35.702Z,18.75
2018-06-23T10:22:03.776Z,19.23
2018-06-23T10:24:31.844Z,19.51
2018-06-23T10:26:59.896Z,19.66
2018-06-23T10:29:27.957Z,19.73
2018-06-23T10:31:56.012Z,19.79
2018-06-23T10:34:24.057Z,19.74
2018-06-23T10:36:52.112Z,19.48
2018-06-23T10:39:20.152Z,19.04
2018-06-23T10:41:48.201Z,18.80
2018-06-23T10:44:16.272Z,18.65
2018-06-23T10:46:44.360Z,18.52
2018-06-23T10:49:12.393Z,18.22
2018-06-23T10:51:40.439Z,18.02
2018-06-23T10:54:08.490Z,17.86
2018-06-23T10:56:36.535Z,17.75
2018-06-23T10:59:04.784Z,17.68
2018-06-23T11:01:32.836Z,17.71
2018-06-23T11:04:00.880Z,17.74
2018-06-23T11:06:28.933Z,17.93
2018-06-23T11:08:56.967Z,18.04
2018-06-23T11:11:25.029Z,17.99
2018-06-23T11:13:53.073Z,17.80
2018-06-23T11:16:21.114Z,17.58
2018-06-23T11:18:49.169Z,17.43
2018-06-23T11:21:17.680Z,17.31
2018-06-23T11:23:45.722Z,17.30
2018-06-23T11:26:13.840Z,17.36
2018-06-23T11:28:41.898Z,17.39
2018-06-23T11:31:09.968Z,17.36
2018-06-23T11:33:38.056Z,17.20
2018-06-23T11:36:06.108Z,17.03
2018-06-23T11:38:34.361Z,16.97
2018-06-23T11:41:05.908Z,16.98
2018-06-23T11:43:39.032Z,16.85
2018-06-23T11:46:07.139Z,16.78
2018-06-23T11:48:35.191Z,16.82
2018-06-23T11:51:03.396Z,16.67
2018-06-23T11:53:31.720Z,16.69
2018-06-23T11:55:59.784Z,16.78
2018-06-23T11:58:27.824Z,16.93
2018-06-23T12:00:55.979Z,17.04
2018-06-23T12:03:24.037Z,17.13
2018-06-23T12:05:52.147Z,17.27
2018-06-23T12:08:20.216Z,17.39
2018-06-23T12:10:48.266Z,17.39
2018-06-23T12:13:16.620Z,17.43
2018-06-23T12:15:44.666Z,17.34
2018-06-23T12:18:12.770Z,17.32
2018-06-23T12:20:40.821Z,17.18
2018-06-23T12:23:08.908Z,17.07
2018-06-23T12:25:37.307Z,17.01
2018-06-23T12:28:05.440Z,16.79
2018-06-23T12:30:33.567Z,16.69
2018-06-23T12:33:01.543Z,16.64
2018-06-23T12:35:29.596Z,16.60
2018-06-23T12:37:57.660Z,16.55
2018-06-23T12:40:25.692Z,16.58
2018-06-23T12:42:53.741Z,16.64
2018-06-23T12:45:21.833Z,16.64
2018-06-23T12:47:49.872Z,16.60
2018-06-23T12:50:17.900Z,16.57
2018-06-23T12:52:45.952Z,16.54
2018-06-23T12:55:14.000Z,16.52
2018-06-23T12:57:42.061Z,16.56
2018-06-23T13:00:10.112Z,16.53
2018-06-23T13:02:38.148Z,16.46
2018-06-23T13:05:06.585Z,16.42
2018-06-23T13:07:34.681Z,16.38
2018-06-23T13:10:02.735Z,16.26
2018-06-23T13:12:30.788Z,16.17
2018-06-23T13:14:58.890Z,16.22
2018-06-23T13:17:26.996Z,16.31
2018-06-23T13:19:55.044Z,16.31
2018-06-23T13:22:23.130Z,16.23
2018-06-23T13:24:51.160Z,16.27
2018-06-23T13:27:19.190Z,16.32
2018-06-23T13:29:51.104Z,16.28
2018-06-23T13:32:19.212Z,16.28
2018-06-23T13:34:47.354Z,16.19
2018-06-23T13:37:15.396Z,16.15
2018-06-23T13:39:43.518Z,16.12
2018-06-23T13:42:11.584Z,16.03
2018-06-23T13:44:39.702Z,16.03
2018-06-23T13:47:07.770Z,16.01
2018-06-23T13:49:36.013Z,16.03
2018-06-23T13:52:04.068Z,16.02
2018-06-23T13:54:32.227Z,16.01
2018-06-23T13:57:02.172Z,16.07
2018-06-23T13:59:30.226Z,16.11
2018-06-23T14:01:58.263Z,16.08
2018-06-23T14:04:26.328Z,16.08
2018-06-23T14:06:54.402Z,16.08
2018-06-23T14:09:22.461Z,16.04
2018-06-23T14:11:50.527Z,16.03
2018-06-23T14:14:18.572Z,16.03
2018-06-23T14:16:46.617Z,16.01
2018-06-23T14:19:14.691Z,16.07
2018-06-23T14:21:42.808Z,16.09
2018-06-23T14:24:10.856Z,16.05
2018-06-23T14:26:38.908Z,16.03
2018-06-23T14:29:06.980Z,16.05
2018-06-23T14:31:35.128Z,16.05
2018-06-23T14:34:03.077Z,16.06
2018-06-23T14:36:31.113Z,16.07
2018-06-23T14:38:59.156Z,16.08
2018-06-23T14:41:27.228Z,16.09
2018-06-23T14:43:55.267Z,16.07
2018-06-23T14:46:23.333Z,16.04
2018-06-23T14:48:51.384Z,16.05
2018-06-23T14:51:19.453Z,16.05
2018-06-23T14:53:47.512Z,16.06
2018-06-23T14:56:15.548Z,16.08
2018-06-23T14:58:43.681Z,16.10
2018-06-23T15:01:11.876Z,16.01
2018-06-23T15:03:39.964Z,15.94
2018-06-23T15:06:08.968Z,15.90
2018-06-23T15:08:48.800Z,15.88
2018-06-23T15:11:28.215Z,15.79
2018-06-23T15:13:56.262Z,15.77
2018-06-23T15:16:24.339Z,15.79
2018-06-23T15:18:52.395Z,15.76
2018-06-23T15:21:20.436Z,15.74
2018-06-23T15:23:48.491Z,15.69
2018-06-23T15:26:16.568Z,15.67
2018-06-23T15:28:44.651Z,15.68
2018-06-23T15:31:12.725Z,15.73
2018-06-23T15:33:41.333Z,15.77
2018-06-23T15:36:09.344Z,15.84
2018-06-23T15:38:37.396Z,15.82
2018-06-23T15:41:05.917Z,15.76
2018-06-23T15:43:34.105Z,15.67
2018-06-23T15:46:02.197Z,15.61
2018-06-23T15:48:30.338Z,15.54
2018-06-23T15:50:58.389Z,15.46
2018-06-23T15:53:26.448Z,15.44
2018-06-23T15:55:54.524Z,15.38
2018-06-23T15:58:22.545Z,15.38
2018-06-23T16:00:50.624Z,15.40
2018-06-23T16:03:18.668Z,15.49
2018-06-23T16:05:46.725Z,15.53
2018-06-23T16:08:14.774Z,15.58
2018-06-23T16:10:42.823Z,15.57
2018-06-23T16:13:10.867Z,15.55
2018-06-23T16:15:38.919Z,15.48
2018-06-23T16:18:06.982Z,15.51
2018-06-23T16:20:35.044Z,15.51
2018-06-23T16:23:03.084Z,15.50
2018-06-23T16:25:31.156Z,15.52
2018-06-23T16:27:59.224Z,15.53
2018-06-23T16:30:27.308Z,15.50
2018-06-23T16:32:55.360Z,15.53
2018-06-23T16:35:23.722Z,15.60
2018-06-23T16:37:51.453Z,15.62
2018-06-23T16:40:19.572Z,15.64
2018-06-23T16:42:47.616Z,15.63
2018-06-23T16:45:15.673Z,15.59
2018-06-23T16:47:43.720Z,15.57
2018-06-23T16:50:11.779Z,15.54
2018-06-23T16:52:39.826Z,15.53
2018-06-23T16:55:07.868Z,15.45
2018-06-23T16:57:35.903Z,15.39
2018-06-23T17:00:04.696Z,15.43
2018-06-23T17:02:32.745Z,15.47
2018-06-23T17:05:00.780Z,15.39
2018-06-23T17:07:28.832Z,15.40
2018-06-23T17:09:56.876Z,15.41
2018-06-23T17:12:24.925Z,15.42
2018-06-23T17:14:52.960Z,15.46
2018-06-23T17:17:21.024Z,15.50
2018-06-23T17:19:49.093Z,15.44
2018-06-23T17:22:17.144Z,15.37
2018-06-23T17:24:45.224Z,15.31
2018-06-23T17:27:13.294Z,15.25
2018-06-23T17:29:41.327Z,15.26
2018-06-23T17:32:09.374Z,15.26
2018-06-23T17:34:37.420Z,15.26
2018-06-23T17:37:05.590Z,15.21
2018-06-23T17:39:33.632Z,15.18
2018-06-23T17:42:01.704Z,15.17
2018-06-23T17:44:29.711Z,15.18
2018-06-23T17:46:57.772Z,15.17
2018-06-23T17:49:25.820Z,15.21
2018-06-23T17:51:53.906Z,15.26
2018-06-23T17:54:21.921Z,15.28
2018-06-23T17:56:49.969Z,15.24
2018-06-23T17:59:18.012Z,15.23
2018-06-23T18:01:46.529Z,15.25
2018-06-23T18:04:14.596Z,15.24
2018-06-23T18:06:49.396Z,15.18
2018-06-23T18:09:18.273Z,15.12
2018-06-23T18:11:46.363Z,15.05
2018-06-23T18:14:14.531Z,15.03
2018-06-23T18:16:42.632Z,14.94
2018-06-23T18:19:10.700Z,14.93
2018-06-23T18:21:38.862Z,14.95
2018-06-23T18:24:07.916Z,14.94
2018-06-23T18:26:36.084Z,14.95
2018-06-23T18:29:04.296Z,14.94
2018-06-23T18:31:32.430Z,14.90
2018-06-23T18:34:00.569Z,14.92
2018-06-23T18:36:28.708Z,14.89
2018-06-23T18:38:56.864Z,14.89
2018-06-23T18:41:25.020Z,14.85
2018-06-23T18:43:53.191Z,14.85
2018-06-23T18:46:21.315Z,14.86
2018-06-23T18:48:49.497Z,14.84
2018-06-23T18:51:17.553Z,14.86
2018-06-23T18:53:45.652Z,14.88
2018-06-23T18:56:13.752Z,14.86
2018-06-23T18:58:41.977Z,14.82
2018-06-23T19:01:10.112Z,14.80
2018-06-23T19:03:38.296Z,14.84
2018-06-23T19:06:06.620Z,14.84
2018-06-23T19:08:34.884Z,14.81
2018-06-23T19:11:03.132Z,14.78
2018-06-23T19:13:31.341Z,14.83
2018-06-23T19:15:59.448Z,14.83
2018-06-23T19:18:28.164Z,14.83
2018-06-23T19:20:56.396Z,14.84
2018-06-23T19:23:24.512Z,14.82
2018-06-23T19:25:52.552Z,14.80
2018-06-23T19:28:20.660Z,14.81
2018-06-23T19:30:48.724Z,14.78
2018-06-23T19:33:16.812Z,14.77
2018-06-23T19:35:44.936Z,14.79
2018-06-23T19:38:13.084Z,14.78
2018-06-23T19:40:41.224Z,14.73
2018-06-23T19:43:09.346Z,14.67
2018-06-23T19:45:37.464Z,14.69
2018-06-23T19:48:05.648Z,14.66
2018-06-23T19:50:33.723Z,14.61
2018-06-23T19:53:01.876Z,14.61
2018-06-23T19:55:29.996Z,14.64
2018-06-23T19:57:58.209Z,14.59
2018-06-23T20:00:28.244Z,14.57
2018-06-23T20:02:56.556Z,14.59
2018-06-23T20:05:24.724Z,14.60
2018-06-23T20:07:52.845Z,14.57
2018-06-23T20:10:21.027Z,14.51
2018-06-23T20:12:49.103Z,14.50
2018-06-23T20:15:18.397Z,14.54
2018-06-23T20:17:46.497Z,14.55
2018-06-23T20:20:14.536Z,14.59
2018-06-23T20:22:42.576Z,14.63
2018-06-23T20:25:10.628Z,14.63
2018-06-23T20:27:38.674Z,14.59
2018-06-23T20:30:06.769Z,14.55
2018-06-23T20:32:34.896Z,14.50
2018-06-23T20:35:03.879Z,14.48
2018-06-23T20:37:31.904Z,14.50
2018-06-23T20:39:59.939Z,14.47
2018-06-23T20:42:27.989Z,14.47
2018-06-23T20:44:56.256Z,14.45
2018-06-23T20:47:24.320Z,14.48
2018-06-23T20:49:52.344Z,14.49
2018-06-23T20:52:20.385Z,14.52
2018-06-23T20:54:48.476Z,14.51
2018-06-23T20:57:16.508Z,14.47
2018-06-23T20:59:44.548Z,14.44
2018-06-23T21:02:12.588Z,14.44
2018-06-23T21:04:41.059Z,14.45
2018-06-23T21:07:09.121Z,14.48
2018-06-23T21:09:37.181Z,14.49
2018-06-23T21:12:05.229Z,14.43
2018-06-23T21:14:33.265Z,14.41
2018-06-23T21:17:01.303Z,14.39
2018-06-23T21:19:29.364Z,14.38
2018-06-23T21:21:57.396Z,14.39
2018-06-23T21:24:25.429Z,14.44
2018-06-23T21:26:53.456Z,14.44
2018-06-23T21:29:21.503Z,14.43
2018-06-23T21:31:49.548Z,14.44
2018-06-23T21:34:17.607Z,14.48
2018-06-23T21:36:45.655Z,14.48
2018-06-23T21:39:13.697Z,14.49
2018-06-23T21:41:41.754Z,14.50
2018-06-23T21:44:09.791Z,14.56
2018-06-23T21:46:37.849Z,14.61
2018-06-23T21:49:06.000Z,14.64
2018-06-23T21:51:34.051Z,14.61
2018-06-23T21:54:02.103Z,14.59
2018-06-23T21:56:30.151Z,14.60
2018-06-23T21:58:58.208Z,14.57
2018-06-23T22:01:26.245Z,14.56
2018-06-23T22:03:54.281Z,14.56
2018-06-23T22:06:22.345Z,14.56
2018-06-23T22:08:50.372Z,14.58
2018-06-23T22:11:18.422Z,14.59
2018-06-23T22:13:46.456Z,14.61
2018-06-23T22:16:14.497Z,14.64
2018-06-23T22:18:42.556Z,14.63
2018-06-23T22:21:10.871Z,14.64
2018-06-23T22:23:38.912Z,14.65
2018-06-23T22:26:06.969Z,14.67
2018-06-23T22:28:35.008Z,14.66
2018-06-23T22:31:03.061Z,14.64
2018-06-23T22:33:31.100Z,14.63
2018-06-23T22:35:59.148Z,14.63
2018-06-23T22:38:27.176Z,14.62
2018-06-23T22:40:55.212Z,14.63
2018-06-23T22:43:23.257Z,14.56
2018-06-23T22:45:51.295Z,14.49
2018-06-23T22:48:19.334Z,14.46
2018-06-23T22:50:47.372Z,14.46
2018-06-23T22:53:15.408Z,14.46
2018-06-23T22:55:43.512Z,14.47
2018-06-23T22:58:11.553Z,14.47
2018-06-23T23:00:39.678Z,14.45
2018-06-23T23:03:07.705Z,14.48
2018-06-23T23:05:35.760Z,14.51
2018-06-23T23:08:04.042Z,14.54
2018-06-23T23:10:32.167Z,14.57
2018-06-23T23:13:00.206Z,14.56
2018-06-23T23:15:28.244Z,14.58
2018-06-23T23:17:56.275Z,14.59
2018-06-23T23:20:24.316Z,14.57
2018-06-23T23:22:52.352Z,14.56
2018-06-23T23:25:20.419Z,14.55
2018-06-23T23:27:48.467Z,14.55
2018-06-23T23:30:16.508Z,14.55
2018-06-23T23:32:44.565Z,14.54
2018-06-23T23:35:12.621Z,14.55
2018-06-23T23:37:40.671Z,14.56
2018-06-23T23:40:08.711Z,14.54
2018-06-23T23:42:36.773Z,14.55
2018-06-23T23:45:04.827Z,14.53
2018-06-23T23:47:32.872Z,14.52
2018-06-23T23:50:00.935Z,14.52
2018-06-23T23:52:28.984Z,14.53
2018-06-23T23:54:57.025Z,14.55
2018-06-23T23:57:25.072Z,14.54
2018-06-23T23:59:53.125Z,14.56
